Time;durP1;ratioP1;P1;durP2;ratioP2;P2;SDS_P1;SDS_P2;PMS_P1;PMS_P2;Temp;Humidity;BMP_temperature;BMP_pressure;BME280_temperature;BME280_humidity;BME280_pressure;Samples;Min_cycle;Max_cycle;Signal;HPM_P1;HPM_P2
2021/09/15 00:02:05;;;;;;;2.30;1.10;;;22.50;99.90;;;;;;5094427;28;20505;-58
2021/09/15 00:04:32;;;;;;;1.30;1.00;;;22.50;99.90;;;;;;5094054;28;20429;-56
2021/09/15 00:06:58;;;;;;;1.30;1.05;;;22.50;99.90;;;;;;5093940;28;20525;-57
2021/09/15 00:09:27;;;;;;;1.20;1.00;;;22.50;99.90;;;;;;5094250;28;20426;-56
2021/09/15 00:11:54;;;;;;;1.30;1.00;;;22.50;99.90;;;;;;5094493;28;20465;-57
2021/09/15 00:14:21;;;;;;;1.40;0.90;;;22.50;99.90;;;;;;5094058;28;20430;-57
2021/09/15 00:16:48;;;;;;;1.50;0.90;;;22.40;99.90;;;;;;5094155;28;20463;-57
2021/09/15 00:19:15;;;;;;;1.20;0.90;;;22.30;99.90;;;;;;5094315;28;20508;-56
2021/09/15 00:21:42;;;;;;;1.30;1.10;;;22.20;99.90;;;;;;5095724;28;20473;-57
2021/09/15 00:24:09;;;;;;;1.10;0.90;;;22.00;99.90;;;;;;5096806;28;20426;-57
2021/09/15 00:26:38;;;;;;;1.20;0.90;;;21.90;99.90;;;;;;5096926;28;20805;-57
2021/09/15 00:29:05;;;;;;;1.20;0.90;;;22.00;99.90;;;;;;5096238;28;20433;-57
2021/09/15 00:31:32;;;;;;;1.98;1.00;;;22.10;99.90;;;;;;5096773;28;20785;-57
2021/09/15 00:33:59;;;;;;;1.20;1.00;;;22.20;99.90;;;;;;5096236;28;20468;-57
2021/09/15 00:36:25;;;;;;;1.58;1.00;;;22.30;99.90;;;;;;5097087;28;20505;-57
2021/09/15 00:38:53;;;;;;;1.50;1.00;;;22.30;99.90;;;;;;5096015;28;20955;-57
2021/09/15 00:41:19;;;;;;;1.10;0.90;;;22.20;99.90;;;;;;5095561;28;20479;-56
2021/09/15 00:44:01;;;;;;;1.10;0.90;;;22.30;99.90;;;;;;5097017;28;20452;-59
2021/09/15 00:46:28;;;;;;;2.10;0.90;;;22.30;99.90;;;;;;5096254;28;20876;-59
2021/09/15 00:48:55;;;;;;;1.60;0.90;;;22.30;99.90;;;;;;5096278;28;20744;-59
2021/09/15 00:51:22;;;;;;;1.20;0.90;;;22.20;99.90;;;;;;5096739;28;20870;-59
2021/09/15 00:53:50;;;;;;;1.50;0.90;;;22.20;99.90;;;;;;5096713;28;20471;-57
2021/09/15 00:56:17;;;;;;;1.58;1.00;;;22.10;99.90;;;;;;5096832;28;20469;-58
2021/09/15 00:58:44;;;;;;;1.38;1.10;;;22.00;99.90;;;;;;5096519;28;20465;-58
2021/09/15 01:01:12;;;;;;;2.50;0.90;;;21.90;99.90;;;;;;5096836;28;20475;-56
2021/09/15 01:03:39;;;;;;;1.20;1.05;;;21.80;99.90;;;;;;5095999;28;20509;-58
2021/09/15 01:06:07;;;;;;;1.10;0.90;;;21.80;99.90;;;;;;5093792;28;20500;-58
2021/09/15 01:08:35;;;;;;;1.20;1.00;;;21.70;99.90;;;;;;5095730;28;20440;-58
2021/09/15 01:11:02;;;;;;;1.80;1.00;;;21.60;99.90;;;;;;5096513;28;20420;-58
2021/09/15 01:13:31;;;;;;;1.80;1.00;;;21.60;99.90;;;;;;5096024;28;20438;-59
2021/09/15 01:15:59;;;;;;;1.87;1.10;;;21.60;99.90;;;;;;5096427;28;20453;-58
2021/09/15 01:18:28;;;;;;;1.30;1.00;;;21.50;99.90;;;;;;5095790;28;20426;-59
2021/09/15 01:20:56;;;;;;;1.40;1.10;;;21.60;99.90;;;;;;5095642;28;20741;-58
2021/09/15 01:23:23;;;;;;;1.73;1.15;;;21.60;99.90;;;;;;5095980;28;21423;-58
2021/09/15 01:25:50;;;;;;;1.42;1.00;;;21.70;99.90;;;;;;5095569;28;20468;-58
2021/09/15 01:28:18;;;;;;;1.90;1.10;;;21.80;99.90;;;;;;5095871;28;20505;-59
2021/09/15 01:30:46;;;;;;;1.27;1.00;;;21.90;99.90;;;;;;5095707;28;20450;-58
2021/09/15 01:33:14;;;;;;;1.20;1.00;;;21.90;99.90;;;;;;5095004;28;20466;-58
2021/09/15 01:35:42;;;;;;;2.78;1.10;;;21.80;99.90;;;;;;5095125;28;20449;-58
2021/09/15 01:38:10;;;;;;;1.50;1.08;;;21.80;99.90;;;;;;5095576;28;20501;-58
2021/09/15 01:40:38;;;;;;;1.35;1.00;;;21.70;99.90;;;;;;5095463;28;20461;-59
2021/09/15 01:43:06;;;;;;;1.50;1.07;;;21.70;99.90;;;;;;5095642;28;20853;-58
2021/09/15 01:45:33;;;;;;;2.17;1.02;;;21.70;99.90;;;;;;5095367;28;20483;-58
2021/09/15 01:48:00;;;;;;;1.60;1.20;;;21.60;99.90;;;;;;5095993;28;20913;-59
2021/09/15 01:50:27;;;;;;;2.10;1.30;;;21.50;99.90;;;;;;5095585;28;20509;-58
2021/09/15 01:52:54;;;;;;;2.50;1.10;;;21.50;99.90;;;;;;5095377;28;20513;-58
2021/09/15 01:55:24;;;;;;;1.80;1.13;;;21.50;99.90;;;;;;5095968;28;20473;-57
2021/09/15 01:57:51;;;;;;;1.83;1.30;;;21.40;99.90;;;;;;5094420;28;20446;-58
2021/09/15 02:00:19;;;;;;;1.33;1.20;;;21.40;99.90;;;;;;5094777;28;20462;-58
2021/09/15 02:02:49;;;;;;;1.70;1.10;;;21.40;99.90;;;;;;5094471;28;20417;-58
2021/09/15 02:05:16;;;;;;;1.58;1.20;;;21.40;99.90;;;;;;5094803;28;20856;-58
2021/09/15 02:07:43;;;;;;;1.80;1.15;;;21.40;99.90;;;;;;5094017;28;20966;-58
2021/09/15 02:10:11;;;;;;;1.70;1.30;;;21.40;99.90;;;;;;5093837;28;20521;-58
2021/09/15 02:12:40;;;;;;;1.40;1.20;;;21.50;99.90;;;;;;5092955;28;20910;-59
2021/09/15 02:15:09;;;;;;;1.30;1.00;;;21.50;99.90;;;;;;5094233;28;20516;-58
2021/09/15 02:17:36;;;;;;;1.40;1.10;;;21.50;99.90;;;;;;5095242;28;20509;-58
2021/09/15 02:20:04;;;;;;;1.60;1.20;;;21.50;99.90;;;;;;5095452;28;20449;-57
2021/09/15 02:22:31;;;;;;;1.90;1.20;;;21.40;99.90;;;;;;5095330;28;20878;-58
2021/09/15 02:24:58;;;;;;;2.60;1.20;;;21.50;99.90;;;;;;5095166;28;20487;-58
2021/09/15 02:27:27;;;;;;;1.90;1.10;;;21.50;99.90;;;;;;5094079;28;20452;-58
2021/09/15 02:29:55;;;;;;;1.40;1.15;;;21.50;99.90;;;;;;5095065;28;20524;-58
2021/09/15 02:32:22;;;;;;;2.22;1.50;;;21.50;99.90;;;;;;5094220;28;20517;-57
2021/09/15 02:34:49;;;;;;;1.73;1.20;;;21.50;99.90;;;;;;5093947;28;20513;-58
2021/09/15 02:37:17;;;;;;;1.40;1.10;;;21.60;99.90;;;;;;5094476;28;20418;-58
2021/09/15 02:39:46;;;;;;;2.40;1.10;;;21.60;99.90;;;;;;5093710;28;20520;-57
2021/09/15 02:42:13;;;;;;;1.60;1.10;;;21.60;99.90;;;;;;5093965;28;20417;-58
2021/09/15 02:44:40;;;;;;;1.20;1.10;;;21.70;99.90;;;;;;5092976;28;20793;-58
2021/09/15 02:47:08;;;;;;;2.30;1.10;;;21.70;99.90;;;;;;5093934;28;20857;-58
2021/09/15 02:49:35;;;;;;;3.80;1.30;;;21.70;99.90;;;;;;5095057;28;20460;-59
2021/09/15 02:52:02;;;;;;;1.40;1.20;;;21.60;99.90;;;;;;5094654;28;20470;-59
2021/09/15 02:54:29;;;;;;;1.50;1.20;;;21.50;99.90;;;;;;5094673;28;20495;-58
2021/09/15 02:56:56;;;;;;;2.20;1.10;;;21.40;99.90;;;;;;5093979;28;20422;-58
2021/09/15 02:59:23;;;;;;;1.60;1.10;;;21.40;99.90;;;;;;5095041;28;20930;-58
2021/09/15 03:01:50;;;;;;;1.80;1.20;;;21.40;99.90;;;;;;5094280;28;20512;-58
2021/09/15 03:04:19;;;;;;;1.23;1.10;;;21.40;99.90;;;;;;5093427;28;20516;-59
2021/09/15 03:06:45;;;;;;;1.20;1.10;;;21.40;99.90;;;;;;5094763;28;20475;-58
2021/09/15 03:09:12;;;;;;;2.10;1.20;;;21.30;99.90;;;;;;5094798;28;20457;-57
2021/09/15 03:11:39;;;;;;;1.48;1.20;;;21.30;99.90;;;;;;5094328;28;20445;-57
2021/09/15 03:14:06;;;;;;;2.05;1.23;;;21.20;99.90;;;;;;5093006;28;20935;-58
2021/09/15 03:16:33;;;;;;;2.00;1.20;;;21.30;99.90;;;;;;5092459;28;20441;-58
2021/09/15 03:19:00;;;;;;;1.77;1.10;;;21.40;99.90;;;;;;5092049;28;20532;-58
2021/09/15 03:21:29;;;;;;;2.22;1.20;;;21.40;99.90;;;;;;5091317;28;20422;-58
2021/09/15 03:23:56;;;;;;;1.30;1.20;;;21.30;99.90;;;;;;5091216;28;20516;-58
2021/09/15 03:26:23;;;;;;;1.90;1.30;;;21.40;99.90;;;;;;5091569;28;20574;-58
2021/09/15 03:28:50;;;;;;;1.60;1.10;;;21.40;99.90;;;;;;5094016;28;20469;-58
2021/09/15 03:31:17;;;;;;;1.97;1.10;;;21.50;99.90;;;;;;5097433;28;20891;-58
2021/09/15 03:33:44;;;;;;;1.47;1.00;;;21.50;99.90;;;;;;5097204;28;20426;-57
2021/09/15 03:36:11;;;;;;;1.45;1.10;;;21.50;99.90;;;;;;5096223;28;20457;-56
2021/09/15 03:38:39;;;;;;;1.30;1.00;;;21.50;99.90;;;;;;5096884;28;20509;-56
2021/09/15 03:41:06;;;;;;;1.60;1.10;;;21.40;99.90;;;;;;5097023;28;20445;-58
2021/09/15 03:43:33;;;;;;;1.42;1.17;;;21.40;99.90;;;;;;5097027;28;20465;-57
2021/09/15 03:46:00;;;;;;;1.20;1.00;;;21.30;99.90;;;;;;5096741;28;20509;-58
2021/09/15 03:48:27;;;;;;;1.40;1.20;;;21.30;99.90;;;;;;5097005;28;20468;-58
2021/09/15 03:50:54;;;;;;;2.50;1.08;;;21.40;99.90;;;;;;5096693;28;20445;-58
2021/09/15 03:53:21;;;;;;;1.40;1.00;;;21.30;99.90;;;;;;5095716;28;20472;-57
2021/09/15 03:55:49;;;;;;;1.30;1.10;;;21.40;99.90;;;;;;5096458;28;20417;-57
2021/09/15 03:58:16;;;;;;;1.30;1.00;;;21.40;99.90;;;;;;5094982;28;20418;-56
2021/09/15 04:00:43;;;;;;;1.73;1.30;;;21.30;99.90;;;;;;5094359;28;20461;-57
2021/09/15 04:03:10;;;;;;;1.52;1.05;;;21.30;99.90;;;;;;5094689;28;20453;-57
2021/09/15 04:05:37;;;;;;;1.67;1.10;;;21.20;99.90;;;;;;5095733;28;20512;-56
2021/09/15 04:08:05;;;;;;;1.83;1.10;;;21.20;99.90;;;;;;5095051;28;20453;-57
2021/09/15 04:10:32;;;;;;;1.50;1.10;;;21.20;99.90;;;;;;5095872;28;20465;-57
2021/09/15 04:13:00;;;;;;;1.20;0.90;;;21.20;99.90;;;;;;5095066;28;20811;-58
2021/09/15 04:15:27;;;;;;;1.70;1.10;;;21.30;99.90;;;;;;5094630;28;20895;-56
2021/09/15 04:17:59;;;;;;;1.40;1.10;;;21.20;99.90;;;;;;5093974;28;20422;-56
2021/09/15 04:20:28;;;;;;;2.10;1.05;;;21.20;99.90;;;;;;5080622;28;20467;-57
2021/09/15 04:22:55;;;;;;;1.50;1.00;;;21.10;99.90;;;;;;5090718;28;20406;-58
2021/09/15 04:31:23;;;;;;;1.50;1.00;;;21.20;99.90;;;;;;5070269;28;20940;-57
2021/09/15 04:33:50;;;;;;;1.70;1.00;;;21.20;99.90;;;;;;5094736;28;20438;-55
2021/09/15 04:36:18;;;;;;;1.30;1.00;;;21.20;99.90;;;;;;5095419;28;20504;-56
2021/09/15 04:38:45;;;;;;;2.05;1.00;;;21.20;99.90;;;;;;5095071;28;20434;-57
2021/09/15 04:41:12;;;;;;;1.60;1.10;;;21.20;99.90;;;;;;5085265;28;20424;-58
2021/09/15 04:43:40;;;;;;;1.60;1.00;;;21.20;99.90;;;;;;5084142;28;20521;-57
2021/09/15 04:46:08;;;;;;;1.40;1.08;;;21.20;99.90;;;;;;5094640;28;20441;-58
2021/09/15 04:48:37;;;;;;;1.52;1.20;;;21.20;99.90;;;;;;5094218;28;20512;-57
2021/09/15 04:51:04;;;;;;;1.30;1.00;;;21.20;99.90;;;;;;5093594;28;20426;-59
2021/09/15 04:53:31;;;;;;;2.17;1.20;;;21.10;99.90;;;;;;5093204;28;20438;-57
2021/09/15 04:55:58;;;;;;;1.17;0.98;;;21.00;99.90;;;;;;5090837;28;20458;-57
2021/09/15 04:58:25;;;;;;;1.90;1.15;;;21.10;99.90;;;;;;5091262;28;20814;-57
2021/09/15 05:00:54;;;;;;;1.50;1.00;;;21.20;99.90;;;;;;5090436;28;20880;-57
2021/09/15 05:03:21;;;;;;;1.52;1.10;;;21.30;99.90;;;;;;5092399;28;20406;-58
2021/09/15 05:05:48;;;;;;;1.23;0.90;;;21.30;99.90;;;;;;5091116;28;20472;-58
2021/09/15 05:08:15;;;;;;;1.80;0.90;;;21.30;99.90;;;;;;5091555;28;20787;-57
2021/09/15 05:10:42;;;;;;;2.60;0.90;;;21.20;99.90;;;;;;5088867;28;20520;-57
2021/09/15 05:13:09;;;;;;;2.40;1.10;;;21.20;99.90;;;;;;5089654;28;20544;-57
2021/09/15 05:15:36;;;;;;;2.30;1.00;;;21.20;99.90;;;;;;5088583;28;20509;-57
2021/09/15 05:18:04;;;;;;;2.60;1.10;;;21.10;99.90;;;;;;5089715;28;20414;-56
2021/09/15 05:20:32;;;;;;;2.20;1.00;;;21.00;99.90;;;;;;5092559;28;20414;-60
2021/09/15 05:22:59;;;;;;;1.73;1.10;;;20.90;99.90;;;;;;5090242;28;20428;-57
2021/09/15 05:25:26;;;;;;;1.50;1.00;;;20.90;99.90;;;;;;5092290;28;20772;-57
2021/09/15 05:27:53;;;;;;;1.60;1.00;;;21.00;99.90;;;;;;5092031;28;20733;-61
2021/09/15 05:30:20;;;;;;;1.30;1.00;;;21.00;99.90;;;;;;5092813;28;20524;-58
2021/09/15 05:32:48;;;;;;;2.05;1.20;;;20.90;99.90;;;;;;5093034;28;20507;-58
2021/09/15 05:35:16;;;;;;;1.52;1.00;;;20.70;99.90;;;;;;5093519;28;20514;-56
2021/09/15 05:37:44;;;;;;;2.90;1.00;;;20.70;99.90;;;;;;5093169;28;20479;-58
2021/09/15 05:40:12;;;;;;;1.23;1.00;;;20.70;99.90;;;;;;5088246;28;20522;-59
2021/09/15 05:42:39;;;;;;;1.60;1.02;;;20.70;99.90;;;;;;5088488;28;20414;-57
2021/09/15 05:45:07;;;;;;;1.88;1.00;;;20.60;99.90;;;;;;5087040;28;20518;-58
2021/09/15 05:47:34;;;;;;;1.60;1.00;;;20.60;99.90;;;;;;5086430;28;20483;-59
2021/09/15 05:50:02;;;;;;;1.50;1.05;;;20.60;99.90;;;;;;5083722;28;20523;-58
2021/09/15 05:52:30;;;;;;;2.50;1.00;;;20.60;99.90;;;;;;5085673;28;20429;-58
2021/09/15 05:54:57;;;;;;;3.50;1.10;;;20.50;99.90;;;;;;5086946;28;20766;-58
2021/09/15 05:57:24;;;;;;;1.45;1.00;;;20.70;99.90;;;;;;5086579;28;20793;-58
2021/09/15 05:59:51;;;;;;;1.33;1.08;;;20.80;99.90;;;;;;5087349;28;20565;-58
2021/09/15 06:02:18;;;;;;;1.40;1.20;;;20.80;99.90;;;;;;5091410;28;20549;-59
2021/09/15 06:04:44;;;;;;;2.05;1.00;;;20.80;99.90;;;;;;5092411;28;20484;-58
2021/09/15 06:07:11;;;;;;;1.77;0.90;;;20.70;99.90;;;;;;5091392;28;20418;-58
2021/09/15 06:09:40;;;;;;;1.35;1.10;;;20.80;99.90;;;;;;5092602;28;20537;-58
2021/09/15 06:12:07;;;;;;;2.30;1.10;;;20.80;99.90;;;;;;5093059;28;20497;-58
2021/09/15 06:14:34;;;;;;;1.90;1.10;;;20.60;99.90;;;;;;5093629;28;20434;-57
2021/09/15 06:17:02;;;;;;;1.80;1.10;;;20.50;99.90;;;;;;5091428;28;20452;-56
2021/09/15 06:19:29;;;;;;;2.67;1.20;;;20.60;99.90;;;;;;5092590;28;20445;-57
2021/09/15 06:21:56;;;;;;;2.80;1.20;;;20.50;99.90;;;;;;5090487;28;20860;-57
2021/09/15 06:24:23;;;;;;;1.67;1.10;;;20.40;99.90;;;;;;5091783;28;20923;-57
2021/09/15 06:26:52;;;;;;;1.60;1.30;;;20.60;99.90;;;;;;5088663;28;20471;-57
2021/09/15 06:29:18;;;;;;;2.10;1.17;;;20.60;99.90;;;;;;5078719;28;20516;-58
2021/09/15 06:31:46;;;;;;;1.50;1.00;;;20.60;99.90;;;;;;5088657;28;20422;-58
2021/09/15 06:34:13;;;;;;;2.70;1.10;;;20.60;99.90;;;;;;5088695;28;20445;-57
2021/09/15 06:36:40;;;;;;;3.00;1.27;;;20.50;99.90;;;;;;5089679;28;20421;-56
2021/09/15 06:39:08;;;;;;;2.40;1.10;;;20.40;99.90;;;;;;5086450;28;20810;-57
2021/09/15 06:41:35;;;;;;;2.67;1.25;;;20.50;99.90;;;;;;5086950;28;20418;-56
2021/09/15 06:44:04;;;;;;;2.20;1.20;;;20.50;99.90;;;;;;5087271;28;20514;-57
2021/09/15 06:46:31;;;;;;;2.90;1.10;;;20.50;99.90;;;;;;5088249;28;20422;-57
2021/09/15 06:48:58;;;;;;;1.90;1.10;;;20.60;99.90;;;;;;5089098;28;20454;-58
2021/09/15 06:51:25;;;;;;;2.45;1.10;;;20.70;99.90;;;;;;5091188;28;20779;-57
2021/09/15 06:53:52;;;;;;;1.17;0.93;;;20.70;99.90;;;;;;5091138;28;20430;-57
2021/09/15 06:56:19;;;;;;;3.38;1.20;;;20.60;99.90;;;;;;5091365;28;20496;-58
2021/09/15 06:58:46;;;;;;;2.47;1.30;;;20.40;99.90;;;;;;5091742;28;20504;-58
2021/09/15 07:01:14;;;;;;;1.50;0.95;;;20.30;99.90;;;;;;5090236;28;20810;-57
2021/09/15 07:03:41;;;;;;;2.40;1.00;;;20.40;99.90;;;;;;5092456;28;20485;-57
2021/09/15 07:06:08;;;;;;;2.28;1.10;;;20.50;99.90;;;;;;5088011;28;20425;-57
2021/09/15 07:08:35;;;;;;;1.67;1.37;;;20.50;99.90;;;;;;5091062;28;20906;-56
2021/09/15 07:11:05;;;;;;;1.52;1.00;;;20.60;99.90;;;;;;5093831;28;20505;-55
2021/09/15 07:13:32;;;;;;;1.50;1.10;;;20.60;99.90;;;;;;5090933;28;20810;-55
2021/09/15 07:15:59;;;;;;;3.38;1.10;;;20.60;99.90;;;;;;5091651;28;20622;-56
2021/09/15 07:18:28;;;;;;;1.30;1.00;;;20.70;99.90;;;;;;5092646;28;20430;-55
2021/09/15 07:20:56;;;;;;;1.50;1.00;;;20.80;99.90;;;;;;5095684;28;20456;-54
2021/09/15 07:23:22;;;;;;;1.50;1.00;;;20.90;99.90;;;;;;5096194;28;20480;-55
2021/09/15 07:25:49;;;;;;;1.50;1.10;;;20.80;99.90;;;;;;5093052;28;20509;-56
2021/09/15 07:28:16;;;;;;;1.20;1.00;;;20.80;99.90;;;;;;5091615;28;20806;-54
2021/09/15 07:30:44;;;;;;;1.40;1.00;;;20.60;99.90;;;;;;5094500;28;20588;-54
2021/09/15 07:33:11;;;;;;;1.90;1.00;;;20.50;99.90;;;;;;5093333;28;20798;-54
2021/09/15 07:35:39;;;;;;;1.73;1.00;;;20.50;99.90;;;;;;5094316;28;20433;-56
2021/09/15 07:38:06;;;;;;;2.65;1.40;;;20.60;99.90;;;;;;5092574;28;20843;-56
2021/09/15 07:40:33;;;;;;;2.03;0.95;;;20.70;99.90;;;;;;5094194;28;20905;-56
2021/09/15 07:43:01;;;;;;;3.10;0.80;;;21.00;99.90;;;;;;5094902;28;20413;-53
2021/09/15 07:45:28;;;;;;;2.40;1.20;;;20.90;99.90;;;;;;5093609;28;20417;-56
2021/09/15 07:47:55;;;;;;;3.20;1.00;;;20.80;99.90;;;;;;5090874;28;20542;-55
2021/09/15 07:50:23;;;;;;;2.50;0.90;;;20.80;99.90;;;;;;5093105;28;20460;-55
2021/09/15 07:52:51;;;;;;;2.30;0.90;;;20.80;99.90;;;;;;5093552;28;20509;-56
2021/09/15 07:55:18;;;;;;;1.13;0.80;;;21.00;99.90;;;;;;5094403;28;20615;-55
2021/09/15 07:57:47;;;;;;;3.15;0.90;;;21.10;99.90;;;;;;5092245;28;20867;-56
2021/09/15 08:00:15;;;;;;;2.00;0.90;;;21.20;99.90;;;;;;5091315;28;20764;-55
2021/09/15 08:02:42;;;;;;;1.60;0.90;;;21.30;99.90;;;;;;5089933;28;20425;-54
2021/09/15 08:05:11;;;;;;;1.40;0.80;;;21.40;99.90;;;;;;5092993;28;20418;-55
2021/09/15 08:07:38;;;;;;;2.20;0.80;;;21.40;99.90;;;;;;5094068;28;20500;-56
2021/09/15 08:10:08;;;;;;;2.10;0.90;;;21.20;99.90;;;;;;5093946;28;20492;-56
2021/09/15 08:12:35;;;;;;;1.80;0.70;;;21.20;99.90;;;;;;5094471;28;20426;-53
2021/09/15 08:15:03;;;;;;;1.23;0.80;;;21.00;99.90;;;;;;5095506;28;20469;-54
2021/09/15 08:17:30;;;;;;;1.80;0.80;;;21.10;99.90;;;;;;5092988;28;20481;-56
2021/09/15 08:19:57;;;;;;;1.10;0.80;;;21.20;99.90;;;;;;5094961;28;20536;-55
2021/09/15 08:22:24;;;;;;;1.70;0.70;;;21.10;99.90;;;;;;5092325;28;20430;-57
2021/09/15 08:24:51;;;;;;;2.20;0.75;;;21.00;99.90;;;;;;5092744;28;20421;-54
2021/09/15 08:27:19;;;;;;;1.80;0.80;;;21.00;99.90;;;;;;5091597;28;20471;-57
2021/09/15 08:29:46;;;;;;;1.40;0.80;;;21.10;99.90;;;;;;5090527;28;20487;-56
2021/09/15 08:32:13;;;;;;;1.50;0.70;;;21.20;99.90;;;;;;5090230;28;20497;-57
2021/09/15 08:34:39;;;;;;;1.42;0.80;;;21.20;99.90;;;;;;5091397;28;20841;-55
2021/09/15 08:37:07;;;;;;;2.80;0.80;;;21.30;99.90;;;;;;5091604;28;20430;-56
2021/09/15 08:39:34;;;;;;;1.58;0.90;;;21.30;99.90;;;;;;5090491;28;20433;-57
2021/09/15 08:42:01;;;;;;;1.80;0.80;;;21.50;99.90;;;;;;5090900;28;20446;-56
2021/09/15 08:44:29;;;;;;;1.10;0.70;;;21.60;99.90;;;;;;5092270;28;20426;-56
2021/09/15 08:46:58;;;;;;;2.30;0.80;;;21.50;99.90;;;;;;5090351;28;20458;-57
2021/09/15 08:49:29;;;;;;;1.00;0.80;;;21.20;99.90;;;;;;5089801;28;20494;-56
2021/09/15 08:51:57;;;;;;;2.30;0.80;;;21.20;99.90;;;;;;5093895;28;20426;-56
2021/09/15 08:54:24;;;;;;;1.17;0.77;;;21.30;99.90;;;;;;5092675;28;20544;-57
2021/09/15 08:56:51;;;;;;;2.22;0.80;;;21.20;99.90;;;;;;5091820;28;20421;-55
2021/09/15 08:59:18;;;;;;;1.17;0.80;;;21.10;99.90;;;;;;5092424;28;20430;-55
2021/09/15 09:01:46;;;;;;;1.30;0.90;;;21.20;99.90;;;;;;5091295;28;20895;-55
2021/09/15 09:04:15;;;;;;;1.50;0.90;;;21.20;99.90;;;;;;5090751;28;20809;-56
2021/09/15 09:06:46;;;;;;;1.50;0.80;;;21.20;99.90;;;;;;5088354;28;20430;-56
2021/09/15 09:09:18;;;;;;;2.85;1.00;;;21.20;99.90;;;;;;5084749;28;20441;-56
2021/09/15 09:11:47;;;;;;;1.80;0.90;;;21.00;99.90;;;;;;5082391;28;20498;-55
2021/09/15 09:14:14;;;;;;;1.30;0.80;;;20.80;99.90;;;;;;5089183;28;20440;-54
2021/09/15 09:16:44;;;;;;;2.10;0.90;;;20.80;99.90;;;;;;5090276;28;20668;-55
2021/09/15 09:19:13;;;;;;;2.22;0.80;;;20.80;99.90;;;;;;5091700;28;20455;-54
2021/09/15 09:21:42;;;;;;;1.48;0.80;;;20.80;99.90;;;;;;5090042;28;20479;-55
2021/09/15 09:24:12;;;;;;;1.20;0.90;;;21.00;99.90;;;;;;5083363;28;20787;-52
2021/09/15 09:26:46;;;;;;;1.70;0.90;;;20.90;99.90;;;;;;5089964;28;20479;-56
2021/09/15 09:29:15;;;;;;;0.98;0.70;;;20.80;99.90;;;;;;5093415;28;20736;-56
2021/09/15 09:31:42;;;;;;;1.00;0.70;;;20.80;99.90;;;;;;5091480;28;20931;-56
2021/09/15 09:34:11;;;;;;;1.00;0.70;;;20.80;99.90;;;;;;5092426;28;20437;-56
2021/09/15 09:36:40;;;;;;;1.10;0.77;;;20.60;99.90;;;;;;5089569;28;20747;-56
2021/09/15 09:39:12;;;;;;;1.05;0.80;;;20.50;99.90;;;;;;5090392;28;20540;-56
2021/09/15 09:41:39;;;;;;;0.90;0.70;;;20.50;99.90;;;;;;5090071;28;20513;-58
2021/09/15 09:44:06;;;;;;;1.10;0.82;;;20.60;99.90;;;;;;5090244;28;20694;-56
2021/09/15 09:46:35;;;;;;;1.17;0.80;;;20.50;99.90;;;;;;5089787;28;20414;-59
2021/09/15 09:49:04;;;;;;;1.30;0.80;;;20.60;99.90;;;;;;5090600;28;20487;-59
2021/09/15 09:51:33;;;;;;;1.40;0.93;;;20.50;99.90;;;;;;5087882;28;21325;-56
2021/09/15 09:54:14;;;;;;;1.30;0.90;;;20.40;99.90;;;;;;5087786;28;20433;-57
2021/09/15 09:56:43;;;;;;;1.20;0.80;;;20.50;99.90;;;;;;5086441;28;20430;-57
2021/09/15 09:59:10;;;;;;;1.42;0.80;;;20.80;99.90;;;;;;5088687;28;20429;-57
2021/09/15 10:01:42;;;;;;;2.00;0.88;;;20.80;99.90;;;;;;5090360;28;20467;-57
2021/09/15 10:04:10;;;;;;;1.40;0.90;;;20.80;99.90;;;;;;5088929;28;20429;-58
2021/09/15 10:06:38;;;;;;;1.00;0.70;;;21.10;99.90;;;;;;5090808;28;20490;-57
2021/09/15 10:09:06;;;;;;;1.10;0.80;;;21.20;99.90;;;;;;5090095;28;20437;-57
2021/09/15 10:11:35;;;;;;;1.23;0.75;;;21.40;99.90;;;;;;5087603;28;20446;-56
2021/09/15 10:14:04;;;;;;;2.30;0.80;;;21.70;99.90;;;;;;5090446;28;20494;-58
2021/09/15 10:16:34;;;;;;;1.40;0.70;;;21.50;99.90;;;;;;5088812;28;20457;-57
2021/09/15 10:19:04;;;;;;;1.48;0.80;;;21.80;99.90;;;;;;5089863;28;20430;-57
2021/09/15 10:21:34;;;;;;;1.60;0.70;;;22.10;99.90;;;;;;5088138;28;20439;-62
2021/09/15 10:24:01;;;;;;;1.13;0.70;;;22.10;99.90;;;;;;5089179;28;20425;-56
2021/09/15 10:26:38;;;;;;;2.40;0.70;;;22.10;99.90;;;;;;5087080;28;20762;-57
2021/09/15 10:29:26;;;;;;;3.40;0.80;;;22.00;99.90;;;;;;5088128;28;20426;-54
2021/09/15 10:31:58;;;;;;;1.17;0.70;;;22.00;99.90;;;;;;5088043;28;20932;-56
2021/09/15 10:34:49;;;;;;;1.08;0.85;;;21.90;99.90;;;;;;5071195;28;20642;-50
2021/09/15 10:37:49;;;;;;;1.00;0.70;;;22.00;99.90;;;;;;5078481;28;20446;-48
2021/09/15 10:40:29;;;;;;;1.30;0.80;;;22.00;99.90;;;;;;5088369;28;20521;-50
2021/09/15 10:42:58;;;;;;;1.10;0.75;;;22.00;99.90;;;;;;5087297;28;20478;-52
2021/09/15 10:45:29;;;;;;;1.30;0.80;;;22.10;99.90;;;;;;5087973;28;20454;-48
2021/09/15 10:47:58;;;;;;;1.30;0.90;;;22.10;99.90;;;;;;5088783;28;20422;-53
2021/09/15 10:50:55;;;;;;;1.40;0.80;;;22.00;99.90;;;;;;5091156;28;20442;-51
2021/09/15 10:53:31;;;;;;;1.10;0.80;;;22.00;99.90;;;;;;5026771;28;20440;-53
2021/09/15 10:55:59;;;;;;;1.10;0.73;;;21.90;99.90;;;;;;5077017;28;20521;-53
2021/09/15 10:58:33;;;;;;;1.90;0.80;;;21.80;99.90;;;;;;5087086;28;20950;-48
2021/09/15 11:01:01;;;;;;;1.10;0.80;;;21.90;99.90;;;;;;5089934;28;20422;-49
2021/09/15 11:03:31;;;;;;;1.13;0.80;;;22.00;99.90;;;;;;5090865;28;20487;-50
2021/09/15 11:06:17;;;;;;;3.15;0.80;;;22.10;99.90;;;;;;5071574;28;20474;-52
2021/09/15 11:08:45;;;;;;;2.00;0.80;;;22.40;99.90;;;;;;5081499;28;20434;-53
2021/09/15 11:11:48;;;;;;;1.00;0.70;;;22.70;99.90;;;;;;5091312;28;20542;-51
2021/09/15 11:14:18;;;;;;;1.40;0.80;;;22.70;99.90;;;;;;5088848;28;20516;-48
2021/09/15 11:16:46;;;;;;;1.60;0.90;;;22.50;99.90;;;;;;5088090;28;20867;-48
2021/09/15 11:19:16;;;;;;;1.30;0.80;;;22.60;99.90;;;;;;5090323;28;20438;-54
2021/09/15 11:21:47;;;;;;;2.40;0.90;;;22.60;99.90;;;;;;5090289;28;20428;-49
2021/09/15 11:24:20;;;;;;;1.00;0.80;;;22.70;99.90;;;;;;5091008;28;20421;-51
2021/09/15 11:26:52;;;;;;;3.00;0.80;;;22.60;99.90;;;;;;5092051;28;20426;-52
2021/09/15 11:29:42;;;;;;;1.58;0.70;;;22.70;99.90;;;;;;5090626;28;20637;-49
2021/09/15 11:32:11;;;;;;;1.20;0.80;;;23.00;99.90;;;;;;5087953;28;20421;-53
2021/09/15 11:34:40;;;;;;;1.20;0.70;;;23.10;99.90;;;;;;5088952;28;20889;-51
2021/09/15 11:37:16;;;;;;;1.58;0.85;;;23.20;99.90;;;;;;5088117;28;20528;-51
2021/09/15 11:39:43;;;;;;;1.13;0.70;;;23.30;99.90;;;;;;5088931;28;20438;-53
2021/09/15 11:42:10;;;;;;;2.83;0.80;;;23.20;99.90;;;;;;5090052;28;20602;-54
2021/09/15 11:44:37;;;;;;;0.98;0.77;;;23.00;99.90;;;;;;5089326;28;20517;-51
2021/09/15 11:47:06;;;;;;;1.58;0.80;;;22.80;99.90;;;;;;5087250;28;20793;-51
2021/09/15 11:49:34;;;;;;;1.10;0.80;;;22.80;99.90;;;;;;5089992;28;20852;-49
2021/09/15 11:52:03;;;;;;;1.00;0.80;;;22.70;99.90;;;;;;5095067;28;20504;-51
2021/09/15 11:54:30;;;;;;;2.30;0.70;;;22.70;99.90;;;;;;5094123;28;20432;-52
2021/09/15 11:57:08;;;;;;;2.33;0.93;;;22.80;99.90;;;;;;5094117;28;20495;-56
2021/09/15 11:59:35;;;;;;;2.17;0.80;;;22.70;99.90;;;;;;5090845;28;20510;-51
2021/09/15 12:02:05;;;;;;;1.30;0.80;;;22.60;99.90;;;;;;5091030;28;20507;-54
2021/09/15 12:04:35;;;;;;;2.30;0.90;;;22.50;99.90;;;;;;5091660;28;20437;-54
2021/09/15 12:07:04;;;;;;;1.10;0.90;;;22.50;99.90;;;;;;5091735;28;20418;-54
2021/09/15 12:09:35;;;;;;;2.20;0.90;;;22.30;99.90;;;;;;5092592;28;20436;-52
2021/09/15 12:12:08;;;;;;;1.42;0.90;;;22.20;99.90;;;;;;5079495;28;20464;-56
2021/09/15 12:14:34;;;;;;;1.80;0.90;;;22.10;99.90;;;;;;5073377;28;20422;-52
2021/09/15 12:17:05;;;;;;;1.83;0.80;;;22.20;99.90;;;;;;5089071;28;20434;-51
2021/09/15 12:19:36;;;;;;;1.47;0.90;;;22.20;99.90;;;;;;5093051;28;20433;-54
2021/09/15 12:22:05;;;;;;;2.35;0.90;;;22.10;99.90;;;;;;5092382;28;20467;-55
2021/09/15 12:24:32;;;;;;;1.20;0.90;;;21.90;99.90;;;;;;5087354;28;20460;-55
2021/09/15 12:27:13;;;;;;;3.00;0.85;;;21.80;99.90;;;;;;5091518;28;20457;-56
2021/09/15 12:29:40;;;;;;;1.30;0.80;;;21.90;99.90;;;;;;5092539;28;20422;-55
2021/09/15 12:32:07;;;;;;;1.80;0.80;;;22.00;99.90;;;;;;5091025;28;20471;-55
2021/09/15 12:34:39;;;;;;;1.45;0.88;;;22.00;99.90;;;;;;5092779;28;20611;-56
2021/09/15 12:37:11;;;;;;;1.70;0.93;;;22.00;99.90;;;;;;5093606;28;20432;-56
2021/09/15 12:39:52;;;;;;;2.20;0.90;;;22.10;99.90;;;;;;5093997;28;20706;-56
2021/09/15 12:42:21;;;;;;;2.40;1.00;;;22.10;99.90;;;;;;5094719;28;20418;-56
2021/09/15 12:44:57;;;;;;;2.10;0.90;;;22.20;99.90;;;;;;5094557;28;20887;-51
2021/09/15 12:47:34;;;;;;;2.75;0.98;;;22.10;99.90;;;;;;5093237;28;20509;-55
2021/09/15 12:50:12;;;;;;;1.90;0.90;;;22.10;99.90;;;;;;5092403;28;20655;-54
2021/09/15 12:52:39;;;;;;;1.45;0.90;;;22.10;99.90;;;;;;5091324;28;20482;-55
2021/09/15 12:55:06;;;;;;;3.50;0.82;;;22.20;99.90;;;;;;5089949;28;20430;-55
2021/09/15 12:57:34;;;;;;;1.70;1.00;;;22.30;99.90;;;;;;5091745;28;20449;-53
2021/09/15 13:00:20;;;;;;;1.00;0.80;;;22.30;99.90;;;;;;5092613;28;20426;-55
2021/09/15 13:02:51;;;;;;;2.10;0.90;;;22.40;99.90;;;;;;5093139;28;20845;-54